• Join FlightAware (Why Join?)
  • Login
  • US Flag 
06:32AM EDT


 

Airport Tracker/Info


-or-


 

Live Flight TrackerFlight Track Log ✈ ASQ5869 ✈ 14-May-2013 ✈ KCMH - KORD

Flight Track Log - Related Links

Times and Time Zones

All times are in EDT time to prevent confusion due to time zone crossing. See the ASQ5869 flight status page for this flight to view local times or setup timezone preferences in your user account.

Time Position Orientation Groundspeed Altitude Reporting Facility
EDT Latitude Longitude Course Direction KTS MPH feet Rate Location/Type
03:30PM 40.0042 -82.9186 287° West 167 192 1,400  Level Indianapolis Center
03:31PM 40.0108 -82.9736 279° West 190 219 2,900 1,800 Climbing Indianapolis Center
03:31PM 40.0153 -83.0014 282° West 192 221 3,800 2,220 Climbing Indianapolis Center
03:33PM 40.0267 -83.0764 281° West 201 231 6,300 2,280 Climbing Indianapolis Center
03:34PM 40.0962 -83.3050 294° West  Level FlightAware Approximate
03:34PM 40.0325 -83.1603 275° West 229 264 8,600  Level Indianapolis Center
03:35PM 40.1268 -83.4102 287° West  Level FlightAware Approximate
03:35PM 40.0353 -83.2453 272° West 233 268 10,400  Level Indianapolis Center
03:36PM 40.1525 -83.5215 287° West  Level FlightAware Approximate
03:36PM 40.0567 -83.3511 285° West 281 323 11,600  Level Indianapolis Center
03:37PM 40.1044 -83.4375 306° West 294 338 13,400 2,100 Climbing Indianapolis Center
03:38PM 40.1456 -83.5192 303° West 268 308 16,000 1,620 Climbing Indianapolis Center
03:39PM 40.1881 -83.6019 304° West 271 312 16,800 660 Climbing Indianapolis Center
03:40PM 40.2364 -83.6958 304° West 301 346 17,400 660 Climbing Indianapolis Center
03:41PM 40.2869 -83.7961 303° West 323 372 18,200 1,020 Climbing Indianapolis Center
03:42PM 40.3472 -83.9150 304° West 331 381 19,600 1,260 Climbing Indianapolis Center
03:43PM 40.3997 -84.0178 304° West 336 387 20,900 1,140 Climbing Indianapolis Center
03:44PM 40.4525 -84.1217 304° West 340 391 22,000 1,200 Climbing Indianapolis Center
03:45PM 40.5053 -84.2275 303° West 345 397 23,400 1,320 Climbing Indianapolis Center
03:46PM 40.5572 -84.3303 304° West 335 386 24,800 720 Climbing Indianapolis Center
03:47PM 40.6092 -84.4372 303° West 345 397 25,000 60 Climbing Indianapolis Center
03:48PM 40.6675 -84.5508 304° West 369 425 25,000  Level Indianapolis Center
03:49PM 40.7358 -84.6919 303° West 387 445 25,000  Level Indianapolis Center
03:50PM 40.7972 -84.8150 303° West 396 456 25,000  Level Indianapolis Center
03:51PM 40.8569 -84.9389 303° West 398 458 25,000  Level Indianapolis Center
03:52PM 40.9178 -85.0625 303° West 400 460 25,000  Level Indianapolis Center
03:53PM 40.9783 -85.1861 303° West 399 459 25,000  Level Indianapolis Center
03:54PM 41.0278 -85.3203 296° West 402 463 25,000  Level Indianapolis Center
03:55PM 41.0767 -85.4528 296° West 400 460 25,000  Level Indianapolis Center
03:56PM 41.1344 -85.6089 296° West 401 461 25,000  Level Indianapolis Center
03:57PM 41.1789 -85.7483 293° West 405 466 25,000  Level Indianapolis Center
03:58PM 41.2286 -85.8819 296° West 402 463 25,000 -60 Level Indianapolis Center
03:59PM 41.2767 -86.0178 295° West 403 464 24,900 -300 Descending Indianapolis Center
04:00PM 41.2978 -86.1664 281° West 401 461 24,400 -960 Descending Indianapolis Center
04:01PM 41.3156 -86.3175 279° West 409 471 23,000 -2,280 Descending Indianapolis Center
04:03PM 41.4067 -86.4625 310° West 381 438 19,300 -3,060 Descending Chicago Center
04:04PM 41.4731 -86.5519 315° West 352 405 16,100 -2,760 Descending Chicago Center
04:05PM 41.5392 -86.6372 316° Northwest 334 384 13,700 -1,860 Descending Chicago Center
04:06PM 41.6019 -86.7219 315° West 329 379 12,300 -780 Descending Chicago Center
04:07PM 41.6722 -86.7928 323° Northwest 326 375 12,100 -120 Descending Chicago Center
04:08PM 41.7794 -86.8114 353° North 328 377 12,100 -480 Level Chicago Center
04:09PM 41.8706 -86.8383 348° North 335 386 11,100 -1,020 Descending Chicago Center
04:10PM 41.9172 -86.9356 303° West 319 367 10,100 -540 Descending Chicago Center
04:11PM 41.9558 -87.0394 297° West 314 361 10,100 -60 Level Chicago Center
04:12PM 41.9889 -87.1756 288° West 327 376 10,000 -240 Descending Chicago Center
04:13PM 41.9797 -87.2794 263° West 284 327 9,700 -1,020 Descending Chicago Center
04:14PM 41.9836 -87.3750 273° West 259 298 8,000 -1,620 Descending Chicago Center
04:15PM 41.9833 -87.4333 270° West 254 292 7,300 -1,200 Descending Chicago TRACON
04:15PM 41.9833 -87.5000 270° West 233 268 6,400 -1,200 Descending Chicago TRACON
04:16PM 41.9833 -87.5833 270° West 220 253 5,100 -1,320 Descending Chicago TRACON
04:17PM 41.9833 -87.6667 270° West 203 234 3,800 -1,320 Descending Chicago TRACON